Cook, Missouri
Current Conditions -  °F | °C
As of 4:31 AM on Thursday 27 Nov 2014 (Local Time) from KVIH Reporting Station
Overcast Overcast  
Wind Chill: 23°   Ceiling: 1400
Heat Index: 31°   Visibility: 8mi
Dew Point: 27°   Wind: 8mph
Humidity: 85%   Direction: 330°NNW
Pressure: 30.36"   Gusts: NA
Location:  37.8491°N, 91.4653°W
Report Text: KVIH 271031Z AUTO 33007KT 8SM OVC014 M01/M03 A3036 RMK AO2 T10061028
Loading
Personal Weather Stations






























Interactive Weather Map New forecast layout! Learn more

10-Day Weather Forecast

Advertisements
Track Severe Weather on mobile